Urb Costa Esmeralda, Puerto Rico
Current Conditions -  °F | °C
As of 2:53 PM on Saturday 20 Dec 2014 (Local Time) from TJNR Reporting Station
Overcast Overcast  
Wind Chill: 78°   Ceiling: 6000
Heat Index: 80°   Visibility: 10mi
Dew Point: 72°   Wind: 7mph
Humidity: 81%   Direction: 50°NE
Pressure: 30.01"   Gusts: NA
Location:  18.2667°N, 65.6476°W
Report Text: TJNR 201853Z AUTO 05006KT 10SM SCT028 OVC060 26/22 A3001 RMK AO2 RAB19E51 SLP161 P0001 T02560222 $
Loading
Personal Weather Stations






























Interactive Weather Map New forecast layout! Learn more

10-Day Weather Forecast

Advertisements
Track Severe Weather on mobile